createdAt,value
2022-11-02T00:03:10.451Z,11.25
2022-11-02T00:08:57.240Z,11.32
2022-11-02T00:14:43.980Z,11.32
2022-11-02T00:20:31.217Z,11.22
2022-11-02T00:26:18.666Z,11.24
2022-11-02T00:32:06.772Z,11.30
2022-11-02T00:37:53.514Z,11.11
2022-11-02T00:43:41.216Z,11.08
2022-11-02T00:49:28.082Z,11.09
2022-11-02T00:55:15.571Z,11.13
2022-11-02T01:01:08.719Z,11.19
2022-11-02T01:06:56.127Z,11.07
2022-11-02T01:12:43.074Z,11.03
2022-11-02T01:18:31.235Z,11.02
2022-11-02T01:24:23.670Z,10.95
2022-11-02T01:30:11.013Z,10.96
2022-11-02T01:36:05.898Z,11.08
2022-11-02T01:41:53.442Z,10.89
2022-11-02T01:47:44.557Z,10.91
2022-11-02T01:53:33.957Z,10.83
2022-11-02T01:59:30.138Z,10.91
2022-11-02T02:05:17.856Z,10.85
2022-11-02T02:11:25.711Z,10.83
2022-11-02T02:17:44.714Z,10.86
2022-11-02T02:23:44.214Z,10.67
2022-11-02T02:29:51.244Z,10.65
2022-11-02T02:35:48.901Z,10.64
2022-11-02T02:41:39.954Z,10.58
2022-11-02T02:47:32.235Z,10.42
2022-11-02T02:53:31.206Z,10.51
2022-11-02T02:59:41.590Z,10.60
2022-11-02T03:05:34.344Z,10.62
2022-11-02T03:11:23.427Z,10.52
2022-11-02T03:17:19.755Z,10.43
2022-11-02T03:23:33.072Z,10.41
2022-11-02T03:29:59.476Z,10.26
2022-11-02T03:35:52.206Z,10.33
2022-11-02T03:41:44.463Z,10.42
2022-11-02T03:47:36.929Z,10.42
2022-11-02T03:53:41.615Z,10.48
2022-11-02T03:59:32.548Z,10.36
2022-11-02T04:05:31.205Z,10.22
2022-11-02T04:11:39.043Z,10.28
2022-11-02T04:17:49.664Z,10.38
2022-11-02T04:23:55.955Z,10.36
2022-11-02T04:29:43.928Z,10.27
2022-11-02T04:35:32.281Z,10.37
2022-11-02T04:41:40.500Z,10.42
2022-11-02T04:47:35.676Z,10.32
2022-11-02T04:53:22.437Z,10.28
2022-11-02T04:59:10.886Z,10.21
2022-11-02T05:04:58.072Z,10.20
2022-11-02T05:10:47.664Z,10.14
2022-11-02T05:16:34.502Z,10.18
2022-11-02T05:22:22.737Z,10.15
2022-11-02T05:28:09.890Z,10.17
2022-11-02T05:33:57.002Z,10.26
2022-11-02T05:39:46.343Z,10.31
2022-11-02T05:45:37.049Z,10.29
2022-11-02T05:51:23.643Z,10.31
2022-11-02T05:57:10.438Z,10.28
2022-11-02T06:02:58.337Z,10.28
2022-11-02T06:08:45.124Z,10.35
2022-11-02T06:14:31.755Z,10.45
2022-11-02T06:20:19.518Z,10.59
2022-11-02T06:26:06.465Z,10.58
2022-11-02T06:31:56.263Z,10.52
2022-11-02T06:37:43.122Z,10.51
2022-11-02T06:43:30.137Z,10.59
2022-11-02T06:49:17.058Z,10.64
2022-11-02T06:55:06.345Z,10.67
2022-11-02T07:01:05.116Z,10.61
2022-11-02T07:06:51.934Z,10.72
2022-11-02T07:12:38.592Z,10.74
2022-11-02T07:18:27.887Z,10.77
2022-11-02T07:24:15.487Z,10.89
2022-11-02T07:30:03.443Z,11.27
2022-11-02T07:35:53.153Z,11.81
2022-11-02T07:41:39.877Z,11.95
2022-11-02T07:47:32.807Z,11.97
2022-11-02T07:53:19.669Z,12.30
2022-11-02T07:59:06.317Z,12.73
2022-11-02T08:04:54.999Z,12.80
2022-11-02T08:10:43.554Z,12.42
2022-11-02T08:16:32.842Z,12.44
2022-11-02T08:22:20.110Z,12.43
2022-11-02T08:28:11.560Z,12.45
2022-11-02T08:33:58.721Z,12.61
2022-11-02T08:39:45.440Z,12.73
2022-11-02T08:46:00.511Z,13.15
2022-11-02T08:51:45.498Z,13.49
2022-11-02T08:57:35.635Z,13.81
2022-11-02T09:03:26.773Z,13.77
2022-11-02T09:09:14.186Z,13.97
2022-11-02T09:15:01.048Z,14.31
2022-11-02T09:20:49.150Z,14.45
2022-11-02T09:26:36.106Z,14.61
2022-11-02T09:32:24.932Z,14.91
2022-11-02T09:38:12.022Z,14.85
2022-11-02T09:44:14.932Z,14.92
2022-11-02T09:50:07.619Z,14.67
2022-11-02T09:56:19.946Z,14.23
2022-11-02T10:02:40.067Z,14.14
2022-11-02T10:08:57.929Z,14.40
2022-11-02T10:14:50.441Z,14.60
2022-11-02T10:21:10.511Z,14.82
2022-11-02T10:27:13.940Z,14.98
2022-11-02T10:33:01.660Z,15.20
2022-11-02T10:39:12.897Z,15.58
2022-11-02T10:45:14.847Z,15.21
2022-11-02T10:51:10.312Z,15.08
2022-11-02T10:56:59.059Z,15.26
2022-11-02T11:02:46.355Z,15.41
2022-11-02T11:08:40.881Z,15.54
2022-11-02T11:20:58.247Z,15.53
2022-11-02T11:26:45.000Z,15.13
2022-11-02T11:32:32.060Z,14.70
2022-11-02T11:38:28.314Z,14.26
2022-11-02T11:44:16.467Z,14.62
2022-11-02T11:50:17.703Z,14.81
2022-11-02T11:56:26.079Z,14.71
2022-11-02T12:02:30.836Z,14.86
2022-11-02T12:09:06.197Z,15.14
2022-11-02T12:14:55.688Z,15.31
2022-11-02T14:06:50.212Z,15.02
2022-11-02T14:26:54.844Z,14.99
2022-11-02T14:33:54.512Z,14.90
2022-11-02T15:24:18.697Z,14.78
2022-11-02T15:30:07.628Z,14.73
2022-11-02T15:36:00.551Z,14.69
2022-11-02T15:41:54.061Z,14.64
2022-11-02T15:47:47.306Z,14.76
2022-11-02T15:53:44.178Z,14.66
2022-11-02T15:59:40.022Z,14.67
2022-11-02T16:05:36.074Z,14.68
2022-11-02T16:11:46.139Z,14.67
2022-11-02T16:17:42.375Z,14.73
2022-11-02T16:23:31.628Z,14.72
2022-11-02T16:29:52.247Z,14.79
2022-11-02T16:36:00.893Z,14.84
2022-11-02T16:42:36.398Z,14.88
2022-11-02T16:48:35.107Z,14.91
2022-11-02T16:55:27.836Z,14.91
2022-11-02T17:01:22.553Z,15.00
2022-11-02T17:07:18.845Z,15.08
2022-11-02T17:13:21.581Z,15.03
2022-11-02T17:19:37.958Z,15.07
2022-11-02T17:25:24.656Z,15.11
2022-11-02T17:31:41.141Z,15.14
2022-11-02T17:37:31.137Z,15.14
2022-11-02T17:43:31.165Z,15.16
2022-11-02T17:49:23.721Z,15.23
2022-11-02T17:55:31.184Z,15.13
2022-11-02T18:08:03.043Z,14.91
2022-11-02T18:13:50.105Z,14.89
2022-11-02T18:19:40.777Z,14.83
2022-11-02T18:25:36.987Z,14.84
2022-11-02T18:31:30.064Z,14.66
2022-11-02T18:37:47.262Z,14.49
2022-11-02T18:52:00.552Z,14.31
2022-11-02T18:58:20.707Z,14.39
2022-11-02T19:20:56.170Z,14.49
2022-11-02T19:27:29.475Z,14.59
2022-11-02T20:13:22.743Z,14.13
2022-11-02T20:19:47.674Z,14.07
2022-11-02T20:26:17.640Z,14.25
2022-11-02T21:19:00.514Z,14.44
2022-11-02T21:24:51.057Z,14.52
2022-11-02T21:30:40.983Z,14.59
2022-11-02T21:36:28.102Z,14.64
2022-11-02T21:42:32.385Z,14.62
2022-11-02T21:48:21.296Z,14.62
2022-11-02T22:00:31.000Z,14.74
2022-11-02T22:06:35.210Z,14.73
2022-11-02T22:13:25.040Z,14.58
2022-11-02T22:26:35.113Z,14.63
2022-11-02T22:32:22.526Z,14.69
2022-11-02T22:38:30.003Z,14.64
2022-11-02T22:44:24.029Z,14.66
2022-11-02T22:50:13.864Z,14.74
2022-11-02T22:56:13.914Z,14.61
2022-11-02T23:02:01.265Z,14.66
2022-11-02T23:08:22.299Z,14.48
2022-11-02T23:14:14.111Z,14.37
2022-11-02T23:20:02.191Z,14.24
2022-11-02T23:25:56.635Z,14.33
2022-11-02T23:32:01.944Z,14.53
2022-11-02T23:37:54.584Z,14.45
2022-11-02T23:43:43.563Z,14.28
2022-11-02T23:49:30.566Z,14.25
2022-11-02T23:55:35.772Z,14.16
